Change the Weather History Date:

Friday, December 28, 2012

  Actual Average Record
Temperature  
Mean Temperature 26 °F -  
Max Temperature 32 °F 32 °F 56 °F (1982)
Min Temperature 19 °F 11 °F -25 °F (1933)
Degree Days  
Heating Degree Days 38    
Moisture  
Dew Point 19 °F    
Average Humidity 71    
Maximum Humidity 86    
Minimum Humidity 60    
Precipitation  
Precipitation 0.01 in - - ()
Sea Level Pressure  
Sea Level Pressure 29.93 in    
Wind  
Wind Speed 7 mph (NW)    
Max Wind Speed 16 mph    
Max Gust Speed 23 mph    
Visibility 10 miles    
Events      
Averages and records for this station are not official NWS values.
T = Trace of Precipitation, MM = Missing Value Source: NWS Daily Summary

Daily Weather History Graph

Daily Weather History Graph

Search for Another Location

Airport or City:

Trip Planner

Search our weather history database for the weather conditions in past years. The results will help you decide how hot, cold, wet, or windy it might be!

Date:

Astronomy

Dec. 28, 2012 Rise Set
Actual Time 7:19 AM EST 4:22 PM EST
Civil Twilight 6:47 AM EST 4:54 PM EST
Nautical Twilight 6:11 AM EST 5:30 PM EST
Astronomical Twilight 5:37 AM EST 6:04 PM EST
Moon 4:57 PM EST (12/28) 7:10 AM EST (12/28)
Length of Visible Light 10h 07m
Length of Day
9h 02m
Full, 100% of the Moon is Illuminated
Dec 28
Full
Jan 4
Last Quarter
Jan 11
New
Jan 18
First Quarter
Jan 26
Full

Hourly Weather History & Observations

Time (EST) Temp. Windchill Dew Point Humidity Pressure Visibility Wind Dir Wind Speed Gust Speed Precip Events Conditions
12:35 AM 26.6 °F 16.8 °F 19.4 °F 74% 29.72 in 10.0 mi NNW 10.4 mph - N/A   Overcast
1:35 AM 24.8 °F 15.3 °F 17.6 °F 74% 29.74 in 10.0 mi NNW 9.2 mph 16.1 mph N/A   Overcast
2:15 AM 24.8 °F 16.1 °F 17.6 °F 74% 29.77 in 10.0 mi North 8.1 mph 20.7 mph N/A   Overcast
2:35 AM 24.8 °F 14.0 °F 17.6 °F 74% 29.78 in 10.0 mi NW 11.5 mph - N/A   Overcast
2:55 AM 24.8 °F 14.0 °F 17.6 °F 74% 29.78 in 10.0 mi North 11.5 mph - N/A   Overcast
3:15 AM 24.8 °F 14.0 °F 17.6 °F 74% 29.80 in 10.0 mi NW 11.5 mph 16.1 mph N/A   Overcast
3:35 AM 24.8 °F 14.6 °F 17.6 °F 74% 29.80 in 10.0 mi NNW 10.4 mph 17.3 mph N/A   Overcast
3:55 AM 24.8 °F 20.5 °F 17.6 °F 74% 29.80 in 10.0 mi NNW 3.5 mph - N/A   Overcast
4:15 AM 26.6 °F 16.8 °F 17.6 °F 69% 29.81 in 10.0 mi NW 10.4 mph 19.6 mph N/A   Overcast
4:35 AM 26.6 °F 20.0 °F 17.6 °F 69% 29.82 in 10.0 mi NW 5.8 mph - N/A   Overcast
4:55 AM 26.6 °F 19.1 °F 17.6 °F 69% 29.83 in 10.0 mi NW 6.9 mph 21.9 mph N/A   Overcast
5:15 AM 26.6 °F 19.1 °F 17.6 °F 69% 29.83 in 10.0 mi NW 6.9 mph 16.1 mph N/A   Overcast
5:35 AM 26.6 °F 20.0 °F 17.6 °F 69% 29.84 in 10.0 mi NW 5.8 mph - N/A   Overcast
6:35 AM 24.8 °F 19.1 °F 17.6 °F 74% 29.85 in 10.0 mi NW 4.6 mph - N/A   Scattered Clouds
7:15 AM 24.8 °F 20.5 °F 17.6 °F 74% 29.88 in 8.0 mi NNW 3.5 mph - N/A   Overcast
7:55 AM 24.8 °F 16.9 °F 17.6 °F 74% 29.90 in 10.0 mi NNW 6.9 mph - N/A   Scattered Clouds
8:15 AM 24.8 °F 16.1 °F 15.8 °F 69% 29.91 in 10.0 mi NW 8.1 mph - N/A   Clear
8:35 AM 26.6 °F 21.2 °F 17.6 °F 69% 29.92 in 0.2 mi WNW 4.6 mph - N/A   Unknown
8:55 AM 26.6 °F 20.0 °F 17.6 °F 69% 29.93 in 10.0 mi NNW 5.8 mph - 0.01 in   Mostly Cloudy
9:15 AM 26.6 °F 22.6 °F 17.6 °F 69% 29.94 in 10.0 mi NW 3.5 mph - N/A   Overcast
9:35 AM 26.6 °F 18.2 °F 17.6 °F 69% 29.94 in 10.0 mi NNW 8.1 mph - N/A   Overcast
9:55 AM 28.4 °F 24.6 °F 17.6 °F 64% 29.95 in 10.0 mi NW 3.5 mph - N/A   Overcast
10:15 AM 28.4 °F 19.7 °F 19.4 °F 69% 29.96 in 10.0 mi NW 9.2 mph - N/A   Overcast
10:35 AM 28.4 °F 19.7 °F 17.6 °F 64% 29.95 in 8.0 mi NW 9.2 mph - N/A   Overcast
11:15 AM 30.2 °F 20.2 °F 17.6 °F 60% 29.95 in 10.0 mi NW 12.7 mph 20.7 mph N/A   Overcast
11:35 AM 30.2 °F 22.6 °F 17.6 °F 60% 29.95 in 10.0 mi NNW 8.1 mph 18.4 mph N/A   Overcast
11:55 AM 30.2 °F 20.2 °F 19.4 °F 64% 29.95 in 10.0 mi NNW 12.7 mph 23.0 mph N/A   Overcast
12:15 PM 30.2 °F 20.2 °F 19.4 °F 64% 29.94 in 10.0 mi North 12.7 mph 19.6 mph N/A   Overcast
12:35 PM 30.2 °F 20.8 °F 19.4 °F 64% 29.94 in 10.0 mi NNW 11.5 mph - N/A   Mostly Cloudy
1:15 PM 32.0 °F 22.1 °F 19.4 °F 60% 29.93 in 10.0 mi NNW 13.8 mph 20.7 mph N/A   Mostly Cloudy
1:35 PM 32.0 °F 21.2 °F 21.2 °F 64% 29.94 in 10.0 mi North 16.1 mph 19.6 mph N/A   Mostly Cloudy
1:55 PM 32.0 °F 21.6 °F 19.4 °F 60% 29.94 in 10.0 mi North 15.0 mph - N/A   Mostly Cloudy
2:15 PM 32.0 °F 23.6 °F 19.4 °F 60% 29.95 in 10.0 mi North 10.4 mph 19.6 mph N/A   Mostly Cloudy
2:35 PM 32.0 °F 26.4 °F 19.4 °F 60% 29.95 in 10.0 mi NNW 5.8 mph - N/A   Mostly Cloudy
2:55 PM 32.0 °F 26.4 °F 21.2 °F 64% 29.96 in 10.0 mi NNW 5.8 mph - N/A   Mostly Cloudy
3:15 PM 32.0 °F 25.6 °F 19.4 °F 60% 29.95 in 10.0 mi North 6.9 mph - N/A   Partly Cloudy
3:35 PM 32.0 °F - 19.4 °F 60% 29.95 in 10.0 mi Calm Calm - N/A   Clear
3:55 PM 30.2 °F 26.7 °F 19.4 °F 64% 29.97 in 10.0 mi NW 3.5 mph - N/A   Scattered Clouds
4:15 PM 30.2 °F - 19.4 °F 64% 29.97 in 10.0 mi Calm Calm - N/A   Mostly Cloudy
4:35 PM 30.2 °F 26.7 °F 19.4 °F 64% 29.97 in 10.0 mi WNW 3.5 mph - N/A   Mostly Cloudy
4:55 PM 30.2 °F - 19.4 °F 64% 29.98 in 10.0 mi Calm Calm - N/A   Partly Cloudy
5:35 PM 30.2 °F - 19.4 °F 64% 29.99 in 10.0 mi Calm Calm - N/A   Clear
5:55 PM 30.2 °F - 19.4 °F 64% 29.99 in 10.0 mi Calm Calm - N/A   Clear
6:15 PM 28.4 °F 22.2 °F 21.2 °F 74% 30.00 in 10.0 mi NNW 5.8 mph - N/A   Clear
6:35 PM 30.2 °F - 19.4 °F 64% 30.00 in 10.0 mi Calm Calm - N/A   Clear
6:55 PM 26.6 °F - 21.2 °F 80% 30.01 in 10.0 mi Calm Calm - N/A   Scattered Clouds
7:15 PM 26.6 °F 22.6 °F 21.2 °F 80% 30.01 in 10.0 mi South 3.5 mph - N/A   Overcast
7:35 PM 26.6 °F 21.2 °F 21.2 °F 80% 30.00 in 10.0 mi South 4.6 mph - N/A   Overcast
7:55 PM 26.6 °F 21.2 °F 21.2 °F 80% 30.01 in 10.0 mi SSW 4.6 mph - N/A   Overcast
8:15 PM 24.8 °F 20.5 °F 21.2 °F 86% 30.01 in 10.0 mi SSW 3.5 mph - N/A   Mostly Cloudy
8:55 PM 26.6 °F - 21.2 °F 80% 30.01 in 10.0 mi Calm Calm - N/A   Clear
9:15 PM 26.6 °F - 23.0 °F 86% 30.00 in 10.0 mi Calm Calm - N/A   Clear
9:35 PM 26.6 °F 22.6 °F 21.2 °F 80% 30.01 in 10.0 mi WSW 3.5 mph - N/A   Clear
9:55 PM 26.6 °F 22.6 °F 21.2 °F 80% 30.01 in 10.0 mi South 3.5 mph - N/A   Clear
10:15 PM 24.8 °F - 21.2 °F 86% 30.02 in 10.0 mi Calm Calm - N/A   Clear
10:35 PM 23.0 °F - 19.4 °F 86% 30.01 in 10.0 mi Calm Calm - N/A   Clear
10:55 PM 21.2 °F 14.9 °F 17.6 °F 86% 30.02 in 4.0 mi South 4.6 mph - N/A   Clear
11:15 PM 21.2 °F - 17.6 °F 86% 30.01 in 9.0 mi Calm Calm - N/A   Clear
11:35 PM 21.2 °F - 17.6 °F 86% 30.01 in 7.0 mi Calm Calm - N/A   Clear
11:55 PM 19.4 °F - 15.8 °F 86% 30.01 in 2.5 mi Calm Calm - N/A   Clear